sensor_id;sensor_type;location;lat;lon;timestamp;pressure;altitude;pressure_sealevel;temperature;humidity
58092;BME280;43896;48.178;11.578;2023-06-22T00:01:27;95921.09;;;20.92;67.08
58092;BME280;43896;48.178;11.578;2023-06-22T00:03:52;95907.88;;;20.97;66.79
58092;BME280;43896;48.178;11.578;2023-06-22T00:06:17;95899.19;;;20.84;66.50
58092;BME280;43896;48.178;11.578;2023-06-22T00:08:43;95905.44;;;20.96;66.54
58092;BME280;43896;48.178;11.578;2023-06-22T00:11:08;95918.72;;;21.40;65.53
58092;BME280;43896;48.178;11.578;2023-06-22T00:13:34;95931.63;;;21.80;64.36
58092;BME280;43896;48.178;11.578;2023-06-22T00:15:59;95871.69;;;21.32;64.35
58092;BME280;43896;48.178;11.578;2023-06-22T00:18:25;95867.84;;;21.09;65.59
58092;BME280;43896;48.178;11.578;2023-06-22T00:20:55;95930.34;;;21.33;65.66
58092;BME280;43896;48.178;11.578;2023-06-22T00:23:22;95902.31;;;21.17;65.38
58092;BME280;43896;48.178;11.578;2023-06-22T00:25:49;95950.09;;;21.32;65.80
58092;BME280;43896;48.178;11.578;2023-06-22T00:28:14;95861.34;;;20.61;66.24
58092;BME280;43896;48.178;11.578;2023-06-22T00:30:42;95850.94;;;20.78;65.64
58092;BME280;43896;48.178;11.578;2023-06-22T00:33:08;95855.06;;;20.74;66.18
58092;BME280;43896;48.178;11.578;2023-06-22T00:35:33;95854.28;;;20.92;65.25
58092;BME280;43896;48.178;11.578;2023-06-22T00:38:00;95856.41;;;20.84;65.32
58092;BME280;43896;48.178;11.578;2023-06-22T00:40:29;95896.97;;;21.17;64.86
58092;BME280;43896;48.178;11.578;2023-06-22T00:42:55;95894.28;;;21.17;64.53
58092;BME280;43896;48.178;11.578;2023-06-22T00:45:22;95875.03;;;20.90;64.85
58092;BME280;43896;48.178;11.578;2023-06-22T00:47:52;95903.50;;;21.03;65.59
58092;BME280;43896;48.178;11.578;2023-06-22T00:50:20;95866.94;;;21.15;64.36
58092;BME280;43896;48.178;11.578;2023-06-22T00:52:57;95902.09;;;20.82;65.94
58092;BME280;43896;48.178;11.578;2023-06-22T00:55:24;95870.72;;;20.71;66.02
58092;BME280;43896;48.178;11.578;2023-06-22T00:57:51;95909.88;;;21.21;64.90
58092;BME280;43896;48.178;11.578;2023-06-22T01:00:22;95881.50;;;20.57;66.47
58092;BME280;43896;48.178;11.578;2023-06-22T01:02:50;95873.06;;;20.60;66.11
58092;BME280;43896;48.178;11.578;2023-06-22T01:05:18;95868.13;;;20.39;67.22
58092;BME280;43896;48.178;11.578;2023-06-22T01:16:34;95853.50;;;20.67;66.29
58092;BME280;43896;48.178;11.578;2023-06-22T01:19:17;95833.25;;;20.96;65.48
58092;BME280;43896;48.178;11.578;2023-06-22T01:21:46;95854.34;;;21.04;65.01
58092;BME280;43896;48.178;11.578;2023-06-22T01:24:21;95866.00;;;20.91;66.31
58092;BME280;43896;48.178;11.578;2023-06-22T01:27:26;95898.38;;;21.39;65.46
58092;BME280;43896;48.178;11.578;2023-06-22T01:29:56;95811.78;;;20.22;67.01
58092;BME280;43896;48.178;11.578;2023-06-22T01:32:31;95836.78;;;20.28;67.38
58092;BME280;43896;48.178;11.578;2023-06-22T01:35:00;95817.59;;;20.56;66.22
58092;BME280;43896;48.178;11.578;2023-06-22T01:37:27;95835.75;;;21.09;64.61
58092;BME280;43896;48.178;11.578;2023-06-22T01:39:54;95861.13;;;21.56;63.60
58092;BME280;43896;48.178;11.578;2023-06-22T01:42:21;95891.31;;;21.63;64.26
58092;BME280;43896;48.178;11.578;2023-06-22T01:44:47;95863.66;;;21.50;63.80
58092;BME280;43896;48.178;11.578;2023-06-22T01:47:13;95843.22;;;21.38;63.49
58092;BME280;43896;48.178;11.578;2023-06-22T01:49:40;95837.97;;;21.31;63.64
58092;BME280;43896;48.178;11.578;2023-06-22T01:52:06;95839.09;;;21.23;64.43
58092;BME280;43896;48.178;11.578;2023-06-22T01:54:32;95893.06;;;21.69;64.04
58092;BME280;43896;48.178;11.578;2023-06-22T01:56:58;95874.19;;;21.64;63.28
58092;BME280;43896;48.178;11.578;2023-06-22T01:59:32;95874.22;;;21.76;62.87
58092;BME280;43896;48.178;11.578;2023-06-22T02:02:07;95821.09;;;21.30;63.14
58092;BME280;43896;48.178;11.578;2023-06-22T02:05:02;95870.03;;;21.68;62.56
58092;BME280;43896;48.178;11.578;2023-06-22T02:07:32;95867.75;;;21.53;63.78
58092;BME280;43896;48.178;11.578;2023-06-22T02:10:00;95830.97;;;21.48;63.09
58092;BME280;43896;48.178;11.578;2023-06-22T02:12:27;95809.47;;;21.36;62.63
58092;BME280;43896;48.178;11.578;2023-06-22T02:14:54;95842.47;;;21.49;63.09
58092;BME280;43896;48.178;11.578;2023-06-22T02:17:20;95908.41;;;21.92;63.26
58092;BME280;43896;48.178;11.578;2023-06-22T02:19:46;95843.88;;;21.51;63.05
58092;BME280;43896;48.178;11.578;2023-06-22T02:22:11;95866.66;;;21.72;63.06
58092;BME280;43896;48.178;11.578;2023-06-22T02:24:37;95837.25;;;21.05;64.01
58092;BME280;43896;48.178;11.578;2023-06-22T02:27:03;95911.28;;;21.60;63.89
58092;BME280;43896;48.178;11.578;2023-06-22T02:29:29;95879.41;;;20.66;66.26
58092;BME280;43896;48.178;11.578;2023-06-22T02:31:55;95848.94;;;20.23;67.52
58092;BME280;43896;48.178;11.578;2023-06-22T02:34:21;95831.97;;;20.11;67.96
58092;BME280;43896;48.178;11.578;2023-06-22T02:36:47;95843.13;;;20.77;65.96
58092;BME280;43896;48.178;11.578;2023-06-22T02:41:45;95877.91;;;19.95;68.72
58092;BME280;43896;48.178;11.578;2023-06-22T02:44:11;95903.06;;;20.37;68.29
58092;BME280;43896;48.178;11.578;2023-06-22T02:46:36;95865.41;;;20.20;67.88
58092;BME280;43896;48.178;11.578;2023-06-22T02:49:01;95899.31;;;19.88;69.63
58092;BME280;43896;48.178;11.578;2023-06-22T02:51:27;95895.09;;;20.56;67.83
58092;BME280;43896;48.178;11.578;2023-06-22T02:53:52;95867.66;;;20.42;67.41
58092;BME280;43896;48.178;11.578;2023-06-22T02:56:22;95898.81;;;20.55;67.57
58092;BME280;43896;48.178;11.578;2023-06-22T02:58:51;95870.59;;;20.59;67.11
58092;BME280;43896;48.178;11.578;2023-06-22T03:01:16;95837.19;;;20.50;66.43
58092;BME280;43896;48.178;11.578;2023-06-22T03:03:41;95842.34;;;20.70;66.08
58092;BME280;43896;48.178;11.578;2023-06-22T03:06:07;95915.03;;;21.22;65.56
58092;BME280;43896;48.178;11.578;2023-06-22T03:08:33;95866.81;;;21.10;65.23
58092;BME280;43896;48.178;11.578;2023-06-22T03:10:59;95839.53;;;20.65;65.75
58092;BME280;43896;48.178;11.578;2023-06-22T03:13:24;95907.81;;;21.04;65.95
58092;BME280;43896;48.178;11.578;2023-06-22T03:15:50;95862.72;;;21.08;65.38
58092;BME280;43896;48.178;11.578;2023-06-22T03:18:15;95837.84;;;20.89;64.92
58092;BME280;43896;48.178;11.578;2023-06-22T03:20:41;95829.91;;;20.64;65.50
58092;BME280;43896;48.178;11.578;2023-06-22T03:23:06;95896.69;;;20.89;66.78
58092;BME280;43896;48.178;11.578;2023-06-22T03:25:32;95818.91;;;19.71;68.94
58092;BME280;43896;48.178;11.578;2023-06-22T03:27:58;95823.09;;;19.92;69.22
58092;BME280;43896;48.178;11.578;2023-06-22T03:30:24;95889.69;;;20.12;69.45
58092;BME280;43896;48.178;11.578;2023-06-22T03:32:49;95857.38;;;19.63;70.81
58092;BME280;43896;48.178;11.578;2023-06-22T03:35:14;95866.59;;;20.24;69.24
58092;BME280;43896;48.178;11.578;2023-06-22T03:37:40;95827.69;;;20.10;68.16
58092;BME280;43896;48.178;11.578;2023-06-22T03:40:06;95852.38;;;20.31;68.71
58092;BME280;43896;48.178;11.578;2023-06-22T03:42:33;95833.03;;;20.10;68.61
58092;BME280;43896;48.178;11.578;2023-06-22T03:44:59;95886.78;;;20.20;69.51
58092;BME280;43896;48.178;11.578;2023-06-22T03:47:26;95864.72;;;20.25;68.91
58092;BME280;43896;48.178;11.578;2023-06-22T03:49:51;95902.56;;;20.47;68.80
58092;BME280;43896;48.178;11.578;2023-06-22T03:52:20;95852.75;;;20.09;69.41
58092;BME280;43896;48.178;11.578;2023-06-22T03:54:45;95847.56;;;20.39;68.36
58092;BME280;43896;48.178;11.578;2023-06-22T03:57:11;95863.19;;;20.61;67.53
58092;BME280;43896;48.178;11.578;2023-06-22T03:59:36;95903.16;;;20.74;67.83
58092;BME280;43896;48.178;11.578;2023-06-22T04:02:02;95856.03;;;20.36;68.43
58092;BME280;43896;48.178;11.578;2023-06-22T04:04:27;95843.94;;;20.34;68.48
58092;BME280;43896;48.178;11.578;2023-06-22T04:06:53;95837.00;;;20.26;68.56
58092;BME280;43896;48.178;11.578;2023-06-22T04:09:18;95896.94;;;20.55;68.44
58092;BME280;43896;48.178;11.578;2023-06-22T04:11:43;95882.44;;;20.70;68.00
58092;BME280;43896;48.178;11.578;2023-06-22T04:14:09;95858.13;;;20.53;68.33
58092;BME280;43896;48.178;11.578;2023-06-22T04:16:34;95879.13;;;20.49;68.45
58092;BME280;43896;48.178;11.578;2023-06-22T04:19:00;95851.31;;;20.57;67.83
58092;BME280;43896;48.178;11.578;2023-06-22T04:21:25;95857.53;;;20.00;70.12
58092;BME280;43896;48.178;11.578;2023-06-22T04:23:50;95881.88;;;20.61;68.79
58092;BME280;43896;48.178;11.578;2023-06-22T04:28:55;95832.66;;;20.07;69.62
58092;BME280;43896;48.178;11.578;2023-06-22T04:31:22;95903.78;;;20.51;70.00
58092;BME280;43896;48.178;11.578;2023-06-22T04:33:59;95887.84;;;20.38;70.59
58092;BME280;43896;48.178;11.578;2023-06-22T04:36:35;95899.94;;;20.40;70.75
58092;BME280;43896;48.178;11.578;2023-06-22T04:39:08;95879.06;;;20.05;71.56
58092;BME280;43896;48.178;11.578;2023-06-22T04:41:36;95847.06;;;19.99;71.29
58092;BME280;43896;48.178;11.578;2023-06-22T04:44:17;95888.97;;;19.98;72.34
58092;BME280;43896;48.178;11.578;2023-06-22T04:46:49;95852.59;;;20.04;71.07
58092;BME280;43896;48.178;11.578;2023-06-22T04:49:18;95844.78;;;20.28;70.27
58092;BME280;43896;48.178;11.578;2023-06-22T04:51:44;95866.44;;;20.19;71.25
58092;BME280;43896;48.178;11.578;2023-06-22T04:54:10;95844.91;;;20.14;70.95
58092;BME280;43896;48.178;11.578;2023-06-22T04:56:35;95902.56;;;20.47;71.52
58092;BME280;43896;48.178;11.578;2023-06-22T04:59:01;95901.34;;;20.18;71.92
58092;BME280;43896;48.178;11.578;2023-06-22T05:01:28;95895.13;;;19.99;72.97
58092;BME280;43896;48.178;11.578;2023-06-22T05:03:53;95907.38;;;20.38;71.93
58092;BME280;43896;48.178;11.578;2023-06-22T05:06:21;95899.84;;;20.29;72.01
58092;BME280;43896;48.178;11.578;2023-06-22T05:08:51;95901.69;;;20.53;70.65
58092;BME280;43896;48.178;11.578;2023-06-22T05:11:17;95898.53;;;20.38;71.14
58092;BME280;43896;48.178;11.578;2023-06-22T05:13:42;95890.63;;;20.50;71.17
58092;BME280;43896;48.178;11.578;2023-06-22T05:16:07;95876.38;;;20.56;70.45
58092;BME280;43896;48.178;11.578;2023-06-22T05:18:33;95897.50;;;20.64;70.04
58092;BME280;43896;48.178;11.578;2023-06-22T05:20:59;95883.13;;;20.65;70.42
58092;BME280;43896;48.178;11.578;2023-06-22T05:23:25;95879.63;;;20.83;69.62
58092;BME280;43896;48.178;11.578;2023-06-22T05:25:51;95889.63;;;21.13;69.07
58092;BME280;43896;48.178;11.578;2023-06-22T05:28:16;95881.66;;;20.88;69.33
58092;BME280;43896;48.178;11.578;2023-06-22T05:30:41;95895.03;;;21.06;69.06
58092;BME280;43896;48.178;11.578;2023-06-22T05:33:07;95887.00;;;20.88;69.01
58092;BME280;43896;48.178;11.578;2023-06-22T05:35:32;95887.22;;;20.86;68.72
58092;BME280;43896;48.178;11.578;2023-06-22T05:37:57;95887.81;;;20.88;69.09
58092;BME280;43896;48.178;11.578;2023-06-22T05:40:22;95893.53;;;20.92;68.91
58092;BME280;43896;48.178;11.578;2023-06-22T05:42:48;95902.03;;;20.89;69.19
58092;BME280;43896;48.178;11.578;2023-06-22T05:45:13;95885.81;;;20.84;68.72
58092;BME280;43896;48.178;11.578;2023-06-22T05:47:38;95882.34;;;21.02;68.76
58092;BME280;43896;48.178;11.578;2023-06-22T05:50:05;95867.47;;;20.87;68.60
58092;BME280;43896;48.178;11.578;2023-06-22T05:52:34;95890.94;;;21.04;68.73
58092;BME280;43896;48.178;11.578;2023-06-22T05:54:59;95887.53;;;21.15;68.36
58092;BME280;43896;48.178;11.578;2023-06-22T05:57:25;95883.13;;;21.58;67.26
58092;BME280;43896;48.178;11.578;2023-06-22T05:59:50;95880.38;;;21.27;67.17
58092;BME280;43896;48.178;11.578;2023-06-22T06:02:15;95868.75;;;21.03;68.11
58092;BME280;43896;48.178;11.578;2023-06-22T06:04:41;95884.88;;;21.64;66.31
58092;BME280;43896;48.178;11.578;2023-06-22T06:07:07;95867.97;;;21.33;66.76
58092;BME280;43896;48.178;11.578;2023-06-22T06:09:32;95903.22;;;21.48;66.88
58092;BME280;43896;48.178;11.578;2023-06-22T06:11:57;95901.47;;;21.54;67.20
58092;BME280;43896;48.178;11.578;2023-06-22T06:14:22;95838.97;;;21.18;66.82
58092;BME280;43896;48.178;11.578;2023-06-22T06:16:49;95890.47;;;21.62;66.78
58092;BME280;43896;48.178;11.578;2023-06-22T06:19:14;95816.06;;;21.04;67.32
58092;BME280;43896;48.178;11.578;2023-06-22T06:21:40;95884.75;;;21.59;67.42
58092;BME280;43896;48.178;11.578;2023-06-22T06:24:05;95864.19;;;21.41;67.91
58092;BME280;43896;48.178;11.578;2023-06-22T06:26:30;95861.53;;;21.71;66.58
58092;BME280;43896;48.178;11.578;2023-06-22T06:28:59;95879.13;;;21.79;67.15
58092;BME280;43896;48.178;11.578;2023-06-22T06:31:25;95877.75;;;21.88;66.73
58092;BME280;43896;48.178;11.578;2023-06-22T06:33:54;95864.47;;;21.81;66.85
58092;BME280;43896;48.178;11.578;2023-06-22T06:36:19;95850.50;;;21.79;67.25
58092;BME280;43896;48.178;11.578;2023-06-22T06:38:44;95861.69;;;21.88;66.44
58092;BME280;43896;48.178;11.578;2023-06-22T06:41:12;95858.44;;;21.86;66.42
58092;BME280;43896;48.178;11.578;2023-06-22T06:43:37;95858.38;;;22.16;66.34
58092;BME280;43896;48.178;11.578;2023-06-22T06:46:03;95872.25;;;22.13;66.40
58092;BME280;43896;48.178;11.578;2023-06-22T06:48:28;95871.25;;;22.38;65.56
58092;BME280;43896;48.178;11.578;2023-06-22T06:50:53;95871.72;;;22.46;65.27
58092;BME280;43896;48.178;11.578;2023-06-22T06:53:18;95852.25;;;22.51;64.89
58092;BME280;43896;48.178;11.578;2023-06-22T06:55:44;95867.06;;;22.65;65.00
58092;BME280;43896;48.178;11.578;2023-06-22T06:58:10;95821.97;;;22.51;63.95
58092;BME280;43896;48.178;11.578;2023-06-22T07:00:38;95853.28;;;22.85;64.36
58092;BME280;43896;48.178;11.578;2023-06-22T07:03:04;95851.19;;;22.88;64.28
58092;BME280;43896;48.178;11.578;2023-06-22T07:05:29;95846.28;;;22.96;63.61
58092;BME280;43896;48.178;11.578;2023-06-22T07:07:54;95857.94;;;23.02;64.04
58092;BME280;43896;48.178;11.578;2023-06-22T07:10:20;95853.38;;;23.02;63.52
58092;BME280;43896;48.178;11.578;2023-06-22T07:12:45;95854.13;;;23.38;63.20
58092;BME280;43896;48.178;11.578;2023-06-22T07:15:11;95851.50;;;23.55;61.71
58092;BME280;43896;48.178;11.578;2023-06-22T07:17:38;95876.78;;;23.71;62.60
58092;BME280;43896;48.178;11.578;2023-06-22T07:20:07;95837.41;;;23.48;62.04
58092;BME280;43896;48.178;11.578;2023-06-22T07:22:36;95857.59;;;23.80;61.50
58092;BME280;43896;48.178;11.578;2023-06-22T07:25:01;95812.00;;;23.68;61.20
58092;BME280;43896;48.178;11.578;2023-06-22T07:27:29;95863.53;;;24.10;61.71
58092;BME280;43896;48.178;11.578;2023-06-22T07:30:00;95812.88;;;24.02;61.18
58092;BME280;43896;48.178;11.578;2023-06-22T07:32:25;95838.91;;;24.36;60.23
58092;BME280;43896;48.178;11.578;2023-06-22T07:34:50;95833.78;;;24.34;60.53
58092;BME280;43896;48.178;11.578;2023-06-22T07:37:16;95832.06;;;24.62;59.31
58092;BME280;43896;48.178;11.578;2023-06-22T07:39:41;95847.41;;;24.61;59.69
58092;BME280;43896;48.178;11.578;2023-06-22T07:42:07;95835.38;;;24.86;58.95
58092;BME280;43896;48.178;11.578;2023-06-22T07:44:33;95821.53;;;24.99;58.44
58092;BME280;43896;48.178;11.578;2023-06-22T07:46:58;95826.31;;;24.92;58.81
58092;BME280;43896;48.178;11.578;2023-06-22T07:49:23;95780.56;;;24.53;58.99
58092;BME280;43896;48.178;11.578;2023-06-22T07:51:49;95817.19;;;24.93;59.26
58092;BME280;43896;48.178;11.578;2023-06-22T07:54:14;95818.75;;;25.33;57.74
58092;BME280;43896;48.178;11.578;2023-06-22T07:56:41;95830.44;;;25.44;58.42
58092;BME280;43896;48.178;11.578;2023-06-22T07:59:06;95775.00;;;25.21;57.77
58092;BME280;43896;48.178;11.578;2023-06-22T08:01:31;95801.72;;;25.50;56.88
58092;BME280;43896;48.178;11.578;2023-06-22T08:03:57;95833.69;;;25.95;56.89
58092;BME280;43896;48.178;11.578;2023-06-22T08:06:22;95769.50;;;25.60;56.76
58092;BME280;43896;48.178;11.578;2023-06-22T08:08:47;95820.00;;;26.02;56.04
58092;BME280;43896;48.178;11.578;2023-06-22T08:11:14;95820.03;;;26.07;56.36
58092;BME280;43896;48.178;11.578;2023-06-22T08:13:39;95813.34;;;25.82;56.54
58092;BME280;43896;48.178;11.578;2023-06-22T08:16:04;95823.75;;;25.24;57.81
58092;BME280;43896;48.178;11.578;2023-06-22T08:18:30;95837.66;;;25.38;58.50
58092;BME280;43896;48.178;11.578;2023-06-22T08:20:55;95835.09;;;25.49;57.53
58092;BME280;43896;48.178;11.578;2023-06-22T08:23:20;95823.97;;;25.67;56.72
58092;BME280;43896;48.178;11.578;2023-06-22T08:25:46;95808.66;;;25.73;56.44
58092;BME280;43896;48.178;11.578;2023-06-22T08:28:13;95768.72;;;25.64;55.94
58092;BME280;43896;48.178;11.578;2023-06-22T08:30:38;95800.56;;;26.32;55.47
58092;BME280;43896;48.178;11.578;2023-06-22T08:33:03;95793.16;;;26.55;54.03
58092;BME280;43896;48.178;11.578;2023-06-22T08:35:29;95777.34;;;26.69;53.77
58092;BME280;43896;48.178;11.578;2023-06-22T08:37:54;95805.78;;;26.92;53.03
58092;BME280;43896;48.178;11.578;2023-06-22T08:40:22;95798.84;;;26.58;53.12
58092;BME280;43896;48.178;11.578;2023-06-22T08:42:48;95800.78;;;26.63;53.22
58092;BME280;43896;48.178;11.578;2023-06-22T08:45:14;95824.78;;;26.27;54.02
58092;BME280;43896;48.178;11.578;2023-06-22T08:47:40;95823.53;;;26.08;54.13
58092;BME280;43896;48.178;11.578;2023-06-22T08:50:07;95783.06;;;26.02;54.43
58092;BME280;43896;48.178;11.578;2023-06-22T08:52:34;95825.81;;;26.58;53.37
58092;BME280;43896;48.178;11.578;2023-06-22T08:54:59;95782.09;;;26.56;52.44
58092;BME280;43896;48.178;11.578;2023-06-22T08:57:25;95819.50;;;26.85;52.31
58092;BME280;43896;48.178;11.578;2023-06-22T08:59:50;95769.50;;;26.67;52.28
58092;BME280;43896;48.178;11.578;2023-06-22T09:02:17;95816.88;;;27.01;52.14
58092;BME280;43896;48.178;11.578;2023-06-22T09:04:43;95764.22;;;26.93;51.51
58092;BME280;43896;48.178;11.578;2023-06-22T09:07:08;95790.63;;;27.49;51.01
58092;BME280;43896;48.178;11.578;2023-06-22T09:09:33;95747.03;;;27.20;49.91
58092;BME280;43896;48.178;11.578;2023-06-22T09:11:59;95794.16;;;27.60;49.84
58092;BME280;43896;48.178;11.578;2023-06-22T09:14:24;95808.78;;;27.90;49.88
58092;BME280;43896;48.178;11.578;2023-06-22T09:16:49;95805.31;;;27.99;49.85
58092;BME280;43896;48.178;11.578;2023-06-22T09:19:15;95798.78;;;27.85;49.63
58092;BME280;43896;48.178;11.578;2023-06-22T09:21:40;95796.66;;;27.92;49.01
58092;BME280;43896;48.178;11.578;2023-06-22T09:24:05;95795.56;;;28.14;48.39
58092;BME280;43896;48.178;11.578;2023-06-22T09:26:31;95767.72;;;28.13;48.51
58092;BME280;43896;48.178;11.578;2023-06-22T09:28:57;95800.44;;;28.32;48.22
58092;BME280;43896;48.178;11.578;2023-06-22T09:31:23;95764.75;;;28.15;48.70
58092;BME280;43896;48.178;11.578;2023-06-22T09:33:54;95803.13;;;28.63;48.25
58092;BME280;43896;48.178;11.578;2023-06-22T09:36:20;95781.47;;;28.53;47.63
58092;BME280;43896;48.178;11.578;2023-06-22T09:38:46;95769.59;;;28.49;47.92
58092;BME280;43896;48.178;11.578;2023-06-22T09:41:11;95798.78;;;28.67;47.38
58092;BME280;43896;48.178;11.578;2023-06-22T09:43:36;95771.72;;;28.47;47.27
58092;BME280;43896;48.178;11.578;2023-06-22T09:46:02;95794.22;;;28.63;46.92
58092;BME280;43896;48.178;11.578;2023-06-22T09:48:28;95800.69;;;28.51;47.17
58092;BME280;43896;48.178;11.578;2023-06-22T09:50:54;95757.69;;;28.29;47.42
58092;BME280;43896;48.178;11.578;2023-06-22T09:53:19;95748.22;;;28.42;46.78
58092;BME280;43896;48.178;11.578;2023-06-22T09:55:45;95730.88;;;28.58;46.78
58092;BME280;43896;48.178;11.578;2023-06-22T09:58:10;95734.91;;;28.76;45.64
58092;BME280;43896;48.178;11.578;2023-06-22T10:00:35;95716.50;;;28.73;46.02
58092;BME280;43896;48.178;11.578;2023-06-22T10:03:01;95741.78;;;29.08;46.13
58092;BME280;43896;48.178;11.578;2023-06-22T10:05:26;95754.94;;;28.70;46.58
58092;BME280;43896;48.178;11.578;2023-06-22T10:07:51;95774.59;;;28.96;46.17
58092;BME280;43896;48.178;11.578;2023-06-22T10:10:17;95718.22;;;29.09;45.49
58092;BME280;43896;48.178;11.578;2023-06-22T10:12:46;95761.53;;;29.64;45.22
58092;BME280;43896;48.178;11.578;2023-06-22T10:15:11;95770.09;;;29.86;44.47
58092;BME280;43896;48.178;11.578;2023-06-22T10:17:37;95737.38;;;29.78;43.90
58092;BME280;43896;48.178;11.578;2023-06-22T10:20:03;95763.56;;;29.87;45.32
58092;BME280;43896;48.178;11.578;2023-06-22T10:22:42;95758.34;;;29.96;44.94
58092;BME280;43896;48.178;11.578;2023-06-22T10:25:09;95767.78;;;30.38;44.23
58092;BME280;43896;48.178;11.578;2023-06-22T10:27:34;95757.06;;;30.52;44.36
58092;BME280;43896;48.178;11.578;2023-06-22T10:30:00;95731.88;;;30.17;44.90
58092;BME280;43896;48.178;11.578;2023-06-22T10:32:25;95711.00;;;29.83;44.79
58092;BME280;43896;48.178;11.578;2023-06-22T10:34:51;95716.91;;;29.90;44.72
58092;BME280;43896;48.178;11.578;2023-06-22T10:37:16;95729.56;;;30.29;44.40
58092;BME280;43896;48.178;11.578;2023-06-22T10:39:41;95753.38;;;30.38;44.94
58092;BME280;43896;48.178;11.578;2023-06-22T10:42:07;95711.16;;;30.26;43.74
58092;BME280;43896;48.178;11.578;2023-06-22T10:44:32;95752.66;;;30.56;44.08
58092;BME280;43896;48.178;11.578;2023-06-22T10:46:57;95718.38;;;30.65;43.33
58092;BME280;43896;48.178;11.578;2023-06-22T10:49:23;95735.22;;;30.87;43.01
58092;BME280;43896;48.178;11.578;2023-06-22T10:51:48;95746.34;;;30.85;42.72
58092;BME280;43896;48.178;11.578;2023-06-22T10:54:13;95698.84;;;30.34;42.57
58092;BME280;43896;48.178;11.578;2023-06-22T10:56:40;95691.13;;;30.52;43.50
58092;BME280;43896;48.178;11.578;2023-06-22T10:59:05;95724.69;;;30.80;43.22
58092;BME280;43896;48.178;11.578;2023-06-22T11:01:30;95712.97;;;30.84;42.81
58092;BME280;43896;48.178;11.578;2023-06-22T11:03:56;95697.13;;;30.48;43.13
58092;BME280;43896;48.178;11.578;2023-06-22T11:06:22;95722.94;;;30.11;43.95
58092;BME280;43896;48.178;11.578;2023-06-22T11:08:47;95678.00;;;29.76;44.88
58092;BME280;43896;48.178;11.578;2023-06-22T11:11:12;95682.31;;;29.72;44.89
58092;BME280;43896;48.178;11.578;2023-06-22T11:13:38;95680.13;;;29.40;45.44
58092;BME280;43896;48.178;11.578;2023-06-22T11:16:03;95680.41;;;29.38;45.22
58092;BME280;43896;48.178;11.578;2023-06-22T11:18:28;95685.19;;;29.51;45.74
58092;BME280;43896;48.178;11.578;2023-06-22T11:20:54;95721.22;;;29.97;45.54
58092;BME280;43896;48.178;11.578;2023-06-22T11:23:19;95720.47;;;30.15;45.20
58092;BME280;43896;48.178;11.578;2023-06-22T11:25:44;95671.13;;;30.13;44.24
58092;BME280;43896;48.178;11.578;2023-06-22T11:28:11;95642.56;;;29.97;43.98
58092;BME280;43896;48.178;11.578;2023-06-22T11:30:36;95678.94;;;30.20;44.29
58092;BME280;43896;48.178;11.578;2023-06-22T11:33:02;95692.94;;;30.56;43.34
58092;BME280;43896;48.178;11.578;2023-06-22T11:35:27;95700.78;;;31.25;42.76
58092;BME280;43896;48.178;11.578;2023-06-22T11:37:52;95670.75;;;31.54;41.28
58092;BME280;43896;48.178;11.578;2023-06-22T11:40:18;95716.94;;;31.73;41.16
58092;BME280;43896;48.178;11.578;2023-06-22T11:42:43;95665.59;;;31.34;41.26
58092;BME280;43896;48.178;11.578;2023-06-22T11:45:09;95649.13;;;31.63;40.74
58092;BME280;43896;48.178;11.578;2023-06-22T11:47:34;95700.16;;;31.85;40.64
58092;BME280;43896;48.178;11.578;2023-06-22T11:50:00;95689.78;;;31.87;41.14
58092;BME280;43896;48.178;11.578;2023-06-22T11:52:25;95643.44;;;31.92;40.42
58092;BME280;43896;48.178;11.578;2023-06-22T11:54:52;95694.72;;;32.32;39.38
58092;BME280;43896;48.178;11.578;2023-06-22T11:57:17;95652.19;;;32.08;39.84
58092;BME280;43896;48.178;11.578;2023-06-22T11:59:43;95625.63;;;31.86;40.22
58092;BME280;43896;48.178;11.578;2023-06-22T12:02:08;95659.03;;;32.20;40.09
58092;BME280;43896;48.178;11.578;2023-06-22T12:04:34;95656.41;;;32.14;39.27
58092;BME280;43896;48.178;11.578;2023-06-22T12:07:00;95675.09;;;32.63;39.96
58092;BME280;43896;48.178;11.578;2023-06-22T12:09:25;95612.38;;;32.26;38.91
58092;BME280;43896;48.178;11.578;2023-06-22T12:11:51;95642.72;;;31.73;40.29
58092;BME280;43896;48.178;11.578;2023-06-22T12:14:16;95670.91;;;31.77;40.97
58092;BME280;43896;48.178;11.578;2023-06-22T12:16:41;95624.13;;;31.94;40.25
58092;BME280;43896;48.178;11.578;2023-06-22T12:19:09;95641.72;;;32.43;39.58
58092;BME280;43896;48.178;11.578;2023-06-22T12:21:34;95614.59;;;32.38;39.18
58092;BME280;43896;48.178;11.578;2023-06-22T12:23:59;95613.72;;;32.29;39.37
58092;BME280;43896;48.178;11.578;2023-06-22T12:26:25;95616.13;;;32.30;40.33
58092;BME280;43896;48.178;11.578;2023-06-22T12:28:50;95584.88;;;32.28;39.67
58092;BME280;43896;48.178;11.578;2023-06-22T12:31:15;95577.81;;;32.27;39.78
58092;BME280;43896;48.178;11.578;2023-06-22T12:33:41;95605.03;;;32.55;40.52
58092;BME280;43896;48.178;11.578;2023-06-22T12:36:06;95613.88;;;32.05;40.58
58092;BME280;43896;48.178;11.578;2023-06-22T12:38:32;95623.38;;;31.74;41.32
58092;BME280;43896;48.178;11.578;2023-06-22T12:40:57;95607.53;;;31.63;42.75
58092;BME280;43896;48.178;11.578;2023-06-22T12:43:22;95620.56;;;31.80;42.15
58092;BME280;43896;48.178;11.578;2023-06-22T12:45:48;95592.09;;;31.91;40.84
58092;BME280;43896;48.178;11.578;2023-06-22T12:48:13;95606.44;;;31.64;42.11
58092;BME280;43896;48.178;11.578;2023-06-22T12:50:39;95623.34;;;31.61;43.29
58092;BME280;43896;48.178;11.578;2023-06-22T12:53:04;95586.03;;;31.14;44.16
58092;BME280;43896;48.178;11.578;2023-06-22T12:55:31;95623.56;;;31.45;42.88
58092;BME280;43896;48.178;11.578;2023-06-22T12:57:56;95572.97;;;30.97;42.32
58092;BME280;43896;48.178;11.578;2023-06-22T13:00:22;95622.66;;;31.36;42.47